createdAt,value
2019-06-20T00:01:47.959Z,97633.16
2019-06-20T00:04:19.151Z,97635.73
2019-06-20T00:06:50.263Z,97633.95
2019-06-20T00:09:21.872Z,97622.36
2019-06-20T00:11:54.099Z,97629.33
2019-06-20T00:14:25.311Z,97621.47
2019-06-20T00:16:59.427Z,97623.63
2019-06-20T00:19:29.398Z,97620.95
2019-06-20T00:22:00.314Z,97623.38
2019-06-20T00:24:31.586Z,97619.01
2019-06-20T00:27:02.506Z,97617.23
2019-06-20T00:29:33.567Z,97619.05
2019-06-20T00:32:04.667Z,97621.16
2019-06-20T00:34:35.741Z,97620.17
2019-06-20T00:37:06.690Z,97619.83
2019-06-20T00:39:37.696Z,97626.81
2019-06-20T00:42:08.784Z,97618.77
2019-06-20T00:44:39.598Z,97621.64
2019-06-20T00:47:10.673Z,97625.16
2019-06-20T00:49:42.159Z,97624.14
2019-06-20T00:52:13.092Z,97623.58
2019-06-20T00:54:44.088Z,97628.61
2019-06-20T00:57:15.047Z,97635.89
2019-06-20T00:59:46.029Z,97626.06
2019-06-20T01:02:17.130Z,97634.77
2019-06-20T01:04:48.378Z,97640.39
2019-06-20T01:07:19.649Z,97632.91
2019-06-20T01:09:50.559Z,97631.17
2019-06-20T01:12:21.803Z,97623.85
2019-06-20T01:14:53.039Z,97625.59
2019-06-20T01:17:24.323Z,97624.30
2019-06-20T01:19:58.282Z,97631.17
2019-06-20T01:22:28.225Z,97630.25
2019-06-20T01:24:59.223Z,97628.34
2019-06-20T01:27:30.416Z,97625.91
2019-06-20T01:30:01.468Z,97630.53
2019-06-20T01:32:32.595Z,97635.69
2019-06-20T01:35:05.142Z,97639.69
2019-06-20T01:37:36.185Z,97639.69
2019-06-20T01:40:08.471Z,97642.22
2019-06-20T01:42:41.284Z,97645.70
2019-06-20T01:45:12.530Z,97645.19
2019-06-20T01:47:43.606Z,97642.02
2019-06-20T01:50:15.568Z,97641.70
2019-06-20T01:52:46.513Z,97638.02
2019-06-20T01:55:17.697Z,97633.09
2019-06-20T01:57:48.668Z,97637.16
2019-06-20T02:00:44.750Z,97639.47
2019-06-20T02:03:16.977Z,97647.88
2019-06-20T02:05:48.263Z,97641.38
2019-06-20T02:08:19.479Z,97642.71
2019-06-20T02:10:50.614Z,97642.36
2019-06-20T02:13:21.647Z,97644.20
2019-06-20T02:15:52.653Z,97647.02
2019-06-20T02:18:23.623Z,97648.30
2019-06-20T02:20:58.134Z,97656.34
2019-06-20T02:23:29.237Z,97653.51
2019-06-20T02:26:00.292Z,97654.95
2019-06-20T02:28:32.908Z,97654.33
2019-06-20T02:31:04.224Z,97656.39
2019-06-20T02:33:35.151Z,97658.75
2019-06-20T02:36:06.336Z,97661.61
2019-06-20T02:38:37.309Z,97656.91
2019-06-20T02:41:08.687Z,97661.72
2019-06-20T02:43:39.648Z,97659.26
2019-06-20T02:46:11.058Z,97654.23
2019-06-20T02:48:42.133Z,97656.28
2019-06-20T02:51:13.380Z,97653.53
2019-06-20T02:53:44.586Z,97648.59
2019-06-20T02:56:15.521Z,97649.53
2019-06-20T02:58:46.510Z,97644.05
2019-06-20T03:01:17.492Z,97643.67
2019-06-20T03:03:48.470Z,97641.89
2019-06-20T03:06:19.858Z,97648.49
2019-06-20T03:08:50.927Z,97647.73
2019-06-20T03:11:21.963Z,97650.40
2019-06-20T03:13:52.882Z,97650.23
2019-06-20T03:16:24.095Z,97650.29
2019-06-20T03:18:54.911Z,97654.69
2019-06-20T03:21:25.850Z,97659.09
2019-06-20T03:23:57.020Z,97662.26
2019-06-20T03:26:28.016Z,97659.19
2019-06-20T03:28:59.064Z,97669.63
2019-06-20T03:31:30.430Z,97667.33
2019-06-20T03:34:02.884Z,97667.70
2019-06-20T03:36:34.432Z,97676.70
2019-06-20T03:39:07.684Z,97673.02
2019-06-20T03:41:38.590Z,97667.95
2019-06-20T03:44:09.856Z,97660.58
2019-06-20T03:46:40.963Z,97665.25
2019-06-20T03:49:11.967Z,97661.84
2019-06-20T03:51:43.243Z,97670.78
2019-06-20T03:54:14.288Z,97668.73
2019-06-20T03:56:45.230Z,97678.63
2019-06-20T03:59:16.062Z,97668.97
2019-06-20T04:01:49.201Z,97672.31
2019-06-20T04:04:19.720Z,97667.16
2019-06-20T04:06:50.804Z,97666.84
2019-06-20T04:09:21.690Z,97670.26
2019-06-20T04:11:52.664Z,97676.99
2019-06-20T04:14:23.825Z,97678.52
2019-06-20T04:16:54.928Z,97677.45
2019-06-20T04:19:26.724Z,97680.92
2019-06-20T04:21:57.741Z,97680.84
2019-06-20T04:24:29.083Z,97680.70
2019-06-20T04:27:00.187Z,97683.65
2019-06-20T04:29:31.216Z,97688.64
2019-06-20T04:32:02.268Z,97683.96
2019-06-20T04:34:33.281Z,97682.13
2019-06-20T04:37:04.212Z,97689.05
2019-06-20T04:39:35.182Z,97694.98
2019-06-20T04:42:06.352Z,97689.86
2019-06-20T04:44:37.634Z,97696.54
2019-06-20T04:47:12.945Z,97697.59
2019-06-20T04:49:44.076Z,97695.55
2019-06-20T04:52:15.129Z,97701.47
2019-06-20T04:57:16.374Z,97704.22
2019-06-20T04:59:48.836Z,97705.35
2019-06-20T05:02:21.482Z,97702.89
2019-06-20T05:04:52.465Z,97708.44
2019-06-20T05:07:23.906Z,97714.39
2019-06-20T05:09:54.882Z,97710.00
2019-06-20T05:12:26.004Z,97707.92
2019-06-20T05:14:56.899Z,97714.39
2019-06-20T05:17:28.072Z,97710.79
2019-06-20T05:19:59.044Z,97700.70
2019-06-20T05:22:30.107Z,97711.92
2019-06-20T05:25:01.288Z,97703.89
2019-06-20T05:27:32.249Z,97706.14
2019-06-20T05:30:04.789Z,97707.15
2019-06-20T05:32:35.746Z,97711.42
2019-06-20T05:35:07.515Z,97715.45
2019-06-20T05:37:38.597Z,97701.61
2019-06-20T05:40:10.919Z,97706.36
2019-06-20T05:42:42.106Z,97708.16
2019-06-20T05:45:14.313Z,97713.75
2019-06-20T05:47:45.348Z,97706.91
2019-06-20T05:50:16.678Z,97702.22
2019-06-20T05:52:47.569Z,97697.64
2019-06-20T05:55:19.057Z,97703.59
2019-06-20T05:57:49.933Z,97702.45
2019-06-20T06:00:22.436Z,97702.25
2019-06-20T06:02:53.572Z,97705.20
2019-06-20T06:05:24.766Z,97705.45
2019-06-20T06:07:55.783Z,97705.81
2019-06-20T06:10:26.808Z,97709.71
2019-06-20T06:12:57.756Z,97711.38
2019-06-20T06:15:28.713Z,97711.17
2019-06-20T06:17:59.736Z,97715.51
2019-06-20T06:20:30.584Z,97716.09
2019-06-20T06:23:01.612Z,97719.33
2019-06-20T06:25:32.635Z,97716.16
2019-06-20T06:28:03.700Z,97724.28
2019-06-20T06:30:34.977Z,97718.66
2019-06-20T06:33:06.077Z,97714.63
2019-06-20T06:35:37.301Z,97706.59
2019-06-20T06:38:08.588Z,97717.30
2019-06-20T06:40:39.668Z,97713.28
2019-06-20T06:43:10.837Z,97712.98
2019-06-20T06:45:42.234Z,97723.13
2019-06-20T06:48:13.738Z,97717.14
2019-06-20T06:50:44.755Z,97728.63
2019-06-20T06:53:15.734Z,97727.22
2019-06-20T06:55:47.978Z,97741.30
2019-06-20T06:58:19.215Z,97732.13
2019-06-20T07:00:50.473Z,97730.88
2019-06-20T07:03:21.516Z,97723.53
2019-06-20T07:05:52.612Z,97733.92
2019-06-20T07:08:23.977Z,97740.14
2019-06-20T07:10:55.046Z,97736.90
2019-06-20T07:13:26.186Z,97730.22
2019-06-20T07:15:57.260Z,97734.39
2019-06-20T07:18:28.607Z,97733.36
2019-06-20T07:20:59.609Z,97725.22
2019-06-20T07:23:30.594Z,97731.53
2019-06-20T07:26:01.577Z,97735.75
2019-06-20T07:28:33.037Z,97722.39
2019-06-20T07:31:04.777Z,97722.37
2019-06-20T07:33:35.802Z,97723.47
2019-06-20T07:36:07.532Z,97727.17
2019-06-20T07:38:38.520Z,97724.06
2019-06-20T07:41:09.870Z,97725.11
2019-06-20T07:43:40.939Z,97726.19
2019-06-20T07:46:11.948Z,97740.56
2019-06-20T07:48:43.356Z,97736.45
2019-06-20T07:51:14.256Z,97745.44
2019-06-20T07:53:46.014Z,97735.42
2019-06-20T07:56:17.013Z,97740.18
2019-06-20T07:58:50.029Z,97739.72
2019-06-20T08:01:21.073Z,97739.67
2019-06-20T08:03:52.528Z,97744.95
2019-06-20T08:06:23.464Z,97747.52
2019-06-20T08:08:54.720Z,97747.06
2019-06-20T08:11:26.222Z,97745.95
2019-06-20T08:13:57.443Z,97740.69
2019-06-20T08:16:28.442Z,97739.11
2019-06-20T08:18:59.346Z,97747.17
2019-06-20T08:21:30.408Z,97746.84
2019-06-20T08:24:01.572Z,97744.48
2019-06-20T08:26:32.512Z,97749.86
2019-06-20T08:29:16.683Z,97750.84
2019-06-20T08:31:36.720Z,97749.39
2019-06-20T08:34:09.194Z,97754.89
2019-06-20T08:36:40.151Z,97751.28
2019-06-20T08:39:11.675Z,97753.69
2019-06-20T08:41:42.853Z,97746.67
2019-06-20T08:44:13.765Z,97744.47
2019-06-20T08:46:45.013Z,97749.54
2019-06-20T08:49:16.072Z,97747.69
2019-06-20T08:51:47.713Z,97746.17
2019-06-20T08:54:18.767Z,97752.47
2019-06-20T08:56:51.594Z,97749.52
2019-06-20T08:59:24.626Z,97750.42
2019-06-20T09:01:58.038Z,97743.53
2019-06-20T09:04:28.140Z,97749.92
2019-06-20T09:07:00.560Z,97742.83
2019-06-20T09:09:31.808Z,97753.02
2019-06-20T09:12:05.158Z,97746.73
2019-06-20T09:14:36.590Z,97750.31
2019-06-20T09:17:07.747Z,97740.67
2019-06-20T09:19:38.742Z,97739.21
2019-06-20T09:22:09.994Z,97745.34
2019-06-20T09:24:40.976Z,97736.79
2019-06-20T09:27:11.880Z,97740.67
2019-06-20T09:29:43.063Z,97751.59
2019-06-20T09:32:14.119Z,97739.00
2019-06-20T09:34:45.142Z,97737.52
2019-06-20T09:37:16.194Z,97731.68
2019-06-20T09:39:47.512Z,97742.80
2019-06-20T09:42:19.383Z,97735.48
2019-06-20T09:44:51.492Z,97729.26
2019-06-20T09:47:23.306Z,97728.38
2019-06-20T09:49:57.069Z,97729.03
2019-06-20T09:52:26.950Z,97724.48
2019-06-20T09:54:58.317Z,97727.09
2019-06-20T09:57:29.540Z,97730.88
2019-06-20T10:00:09.686Z,97723.18
2019-06-20T10:02:33.286Z,97729.09
2019-06-20T10:05:09.351Z,97722.00
2019-06-20T10:07:40.356Z,97714.37
2019-06-20T10:10:13.600Z,97731.59
2019-06-20T10:12:45.205Z,97729.77
2019-06-20T10:15:27.171Z,97723.49
2019-06-20T10:17:58.397Z,97716.11
2019-06-20T10:20:30.103Z,97722.47
2019-06-20T10:23:01.121Z,97722.89
2019-06-20T10:25:32.343Z,97714.84
2019-06-20T10:28:03.912Z,97713.27
2019-06-20T10:30:34.918Z,97712.69
2019-06-20T10:33:06.189Z,97713.92
2019-06-20T10:35:37.454Z,97710.64
2019-06-20T10:38:08.333Z,97701.37
2019-06-20T10:40:39.493Z,97704.56
2019-06-20T10:43:10.382Z,97704.06
2019-06-20T10:45:44.046Z,97700.90
2019-06-20T10:48:14.750Z,97699.55
2019-06-20T10:50:47.647Z,97699.33
2019-06-20T10:53:19.205Z,97701.92
2019-06-20T10:55:51.190Z,97698.27
2019-06-20T10:58:22.147Z,97698.27
2019-06-20T11:00:53.545Z,97705.87
2019-06-20T11:03:24.329Z,97695.89
2019-06-20T11:05:55.739Z,97700.58
2019-06-20T11:08:26.685Z,97699.23
2019-06-20T11:10:57.885Z,97690.30
2019-06-20T11:13:28.793Z,97698.09
2019-06-20T11:15:59.872Z,97695.21
2019-06-20T11:18:31.259Z,97702.13
2019-06-20T11:21:02.409Z,97695.45
2019-06-20T11:23:34.789Z,97702.47
2019-06-20T11:26:06.166Z,97702.66
2019-06-20T11:28:38.210Z,97709.77
2019-06-20T11:31:10.026Z,97698.20
2019-06-20T11:33:42.103Z,97698.13
2019-06-20T11:36:13.109Z,97692.25
2019-06-20T11:38:44.565Z,97699.81
2019-06-20T11:41:15.842Z,97704.82
2019-06-20T11:43:46.999Z,97707.84
2019-06-20T11:46:19.155Z,97693.86
2019-06-20T11:48:50.112Z,97697.64
2019-06-20T11:51:21.198Z,97701.61
2019-06-20T11:53:52.470Z,97695.78
2019-06-20T11:56:23.405Z,97700.89
2019-06-20T11:58:54.402Z,97704.41
2019-06-20T12:01:32.896Z,97706.53
2019-06-20T12:03:58.125Z,97706.98
2019-06-20T12:06:29.117Z,97705.53
2019-06-20T12:09:00.181Z,97702.55
2019-06-20T12:11:31.194Z,97708.72
2019-06-20T12:14:02.178Z,97704.27
2019-06-20T12:16:33.474Z,97711.08
2019-06-20T12:19:04.415Z,97709.05
2019-06-20T12:21:35.625Z,97709.28
2019-06-20T12:24:08.755Z,97684.55
2019-06-20T12:26:40.785Z,97683.62
2019-06-20T12:29:12.007Z,97672.30
2019-06-20T12:31:43.157Z,97678.52
2019-06-20T12:34:14.263Z,97668.94
2019-06-20T12:36:46.518Z,97675.44
2019-06-20T12:39:17.719Z,97677.73
2019-06-20T12:41:50.256Z,97675.87
2019-06-20T12:44:21.479Z,97686.38
2019-06-20T12:46:52.671Z,97673.26
2019-06-20T12:49:24.087Z,97677.45
2019-06-20T12:51:55.709Z,97678.79
2019-06-20T12:54:29.410Z,97670.70
2019-06-20T12:56:59.277Z,97659.16
2019-06-20T12:59:30.285Z,97673.94
2019-06-20T13:02:01.277Z,97675.42
2019-06-20T13:04:32.407Z,97668.41
2019-06-20T13:07:03.471Z,97671.13
2019-06-20T13:09:34.491Z,97667.17
2019-06-20T13:12:05.516Z,97654.89
2019-06-20T13:14:36.473Z,97667.92
2019-06-20T13:17:07.459Z,97664.92
2019-06-20T13:19:39.168Z,97655.56
2019-06-20T13:22:11.773Z,97660.99
2019-06-20T13:24:42.923Z,97658.69
2019-06-20T13:27:14.601Z,97653.51
2019-06-20T13:29:45.497Z,97651.23
2019-06-20T13:32:16.633Z,97649.91
2019-06-20T13:34:48.936Z,97642.72
2019-06-20T13:37:20.061Z,97655.34
2019-06-20T13:39:51.021Z,97674.10
2019-06-20T13:42:22.192Z,97644.54
2019-06-20T13:44:53.433Z,97651.67
2019-06-20T13:47:24.344Z,97654.61
2019-06-20T13:49:55.209Z,97654.89
2019-06-20T13:52:26.526Z,97634.39
2019-06-20T13:54:57.558Z,97647.16
2019-06-20T13:57:28.609Z,97634.30
2019-06-20T13:59:59.477Z,97622.41
2019-06-20T14:02:30.529Z,97627.90
2019-06-20T14:05:01.401Z,97621.25
2019-06-20T14:07:32.413Z,97619.16
2019-06-20T14:10:04.949Z,97618.48
2019-06-20T14:12:36.117Z,97628.39
2019-06-20T14:15:10.282Z,97621.95
2019-06-20T14:17:43.089Z,97615.11
2019-06-20T14:20:15.952Z,97609.40
2019-06-20T14:22:46.915Z,97610.73
2019-06-20T14:25:19.802Z,97611.56
2019-06-20T14:27:51.560Z,97604.34
2019-06-20T14:30:24.683Z,97625.11
2019-06-20T14:32:56.050Z,97617.02
2019-06-20T14:35:27.326Z,97623.63
2019-06-20T14:37:58.379Z,97608.60
2019-06-20T14:40:29.496Z,97618.20
2019-06-20T14:43:00.499Z,97605.05
2019-06-20T14:45:31.537Z,97600.20
2019-06-20T14:48:04.001Z,97596.98
2019-06-20T14:50:35.221Z,97599.80
2019-06-20T14:53:06.288Z,97599.46
2019-06-20T14:55:37.385Z,97600.99
2019-06-20T14:58:08.553Z,97618.27
2019-06-20T15:00:39.701Z,97608.00
2019-06-20T15:03:10.731Z,97601.20
2019-06-20T15:05:41.808Z,97598.92
2019-06-20T15:08:12.939Z,97602.85
2019-06-20T15:10:46.522Z,97592.31
2019-06-20T15:13:16.853Z,97596.38
2019-06-20T15:15:49.429Z,97597.64
2019-06-20T15:18:20.812Z,97601.63
2019-06-20T15:20:52.821Z,97610.20
2019-06-20T15:23:24.805Z,97598.39
2019-06-20T15:25:56.420Z,97605.50
2019-06-20T15:28:27.338Z,97606.70
2019-06-20T15:30:58.384Z,97603.35
2019-06-20T15:33:30.896Z,97612.74
2019-06-20T15:36:02.370Z,97609.25
2019-06-20T15:38:33.627Z,97610.73
2019-06-20T15:41:04.850Z,97613.81
2019-06-20T15:43:36.120Z,97608.73
2019-06-20T15:46:07.315Z,97606.99
2019-06-20T15:48:38.500Z,97615.97
2019-06-20T15:51:10.261Z,97606.50
2019-06-20T15:53:41.368Z,97613.36
2019-06-20T15:56:12.251Z,97615.86
2019-06-20T15:58:43.435Z,97628.13
2019-06-20T16:01:14.447Z,97630.92
2019-06-20T16:03:45.613Z,97636.12
2019-06-20T16:06:16.588Z,97636.66
2019-06-20T16:08:47.491Z,97646.23
2019-06-20T16:11:18.456Z,97640.62
2019-06-20T16:13:50.271Z,97646.20
2019-06-20T16:16:21.399Z,97646.05
2019-06-20T16:18:52.306Z,97650.77
2019-06-20T16:21:23.202Z,97659.78
2019-06-20T16:23:54.215Z,97656.48
2019-06-20T16:26:25.256Z,97661.30
2019-06-20T16:28:56.426Z,97662.17
2019-06-20T16:31:27.434Z,97670.75
2019-06-20T16:33:58.415Z,97680.52
2019-06-20T16:36:29.522Z,97680.37
2019-06-20T16:39:00.535Z,97677.30
2019-06-20T16:41:31.784Z,97676.82
2019-06-20T16:44:02.966Z,97675.31
2019-06-20T16:46:33.775Z,97686.37
2019-06-20T16:49:04.942Z,97687.02
2019-06-20T16:51:36.019Z,97681.88
2019-06-20T16:54:07.033Z,97692.41
2019-06-20T16:56:38.198Z,97701.15
2019-06-20T16:59:09.390Z,97688.71
2019-06-20T17:01:40.557Z,97694.92
2019-06-20T17:04:11.578Z,97691.27
2019-06-20T17:06:42.621Z,97688.48
2019-06-20T17:09:13.701Z,97680.75
2019-06-20T17:11:45.709Z,97674.87
2019-06-20T17:14:16.811Z,97670.12
2019-06-20T17:16:47.824Z,97669.41
2019-06-20T17:19:18.945Z,97674.13
2019-06-20T17:21:50.025Z,97669.33
2019-06-20T17:24:22.891Z,97667.81
2019-06-20T17:26:54.209Z,97666.66
2019-06-20T17:29:25.482Z,97667.77
2019-06-20T17:31:57.598Z,97664.76
2019-06-20T17:34:28.998Z,97664.69
2019-06-20T17:36:59.941Z,97662.08
2019-06-20T17:39:31.191Z,97655.38
2019-06-20T17:42:02.386Z,97661.30
2019-06-20T17:44:33.553Z,97667.47
2019-06-20T17:47:05.082Z,97668.18
2019-06-20T17:49:36.187Z,97678.18
2019-06-20T17:52:07.400Z,97684.00
2019-06-20T17:54:38.437Z,97687.02
2019-06-20T17:57:09.423Z,97687.41
2019-06-20T17:59:40.678Z,97698.89
2019-06-20T18:02:11.709Z,97692.31
2019-06-20T18:04:42.950Z,97694.70
2019-06-20T18:07:14.246Z,97698.82
2019-06-20T18:09:45.234Z,97705.44
2019-06-20T18:12:16.520Z,97712.84
2019-06-20T18:14:47.470Z,97718.11
2019-06-20T18:17:18.675Z,97713.80
2019-06-20T18:19:50.251Z,97723.97
2019-06-20T18:22:21.480Z,97719.69
2019-06-20T18:24:52.497Z,97723.06
2019-06-20T18:27:23.879Z,97713.92
2019-06-20T18:29:55.354Z,97714.83
2019-06-20T18:32:26.521Z,97726.55
2019-06-20T18:35:02.172Z,97725.34
2019-06-20T18:37:31.952Z,97725.34
2019-06-20T18:40:03.817Z,97730.47
2019-06-20T18:42:35.416Z,97731.41
2019-06-20T18:45:09.601Z,97727.48
2019-06-20T18:47:41.255Z,97729.55
2019-06-20T18:50:13.454Z,97723.27
2019-06-20T18:52:52.291Z,97725.63
2019-06-20T18:55:19.762Z,97727.61
2019-06-20T18:57:52.715Z,97724.42
2019-06-20T19:00:34.543Z,97712.18
2019-06-20T19:02:59.161Z,97715.77
2019-06-20T19:05:30.694Z,97715.07
2019-06-20T19:08:02.309Z,97729.95
2019-06-20T19:10:34.062Z,97722.55
2019-06-20T19:13:05.552Z,97733.45
2019-06-20T19:15:37.085Z,97726.25
2019-06-20T19:18:08.523Z,97732.72
2019-06-20T19:20:40.177Z,97722.33
2019-06-20T19:23:11.400Z,97714.31
2019-06-20T19:25:42.773Z,97719.45
2019-06-20T19:28:14.018Z,97729.23
2019-06-20T19:30:51.468Z,97723.48
2019-06-20T19:33:23.119Z,97729.44
2019-06-20T19:35:55.036Z,97715.89
2019-06-20T19:38:26.475Z,97711.76
2019-06-20T19:40:58.148Z,97708.48
2019-06-20T19:43:29.446Z,97717.73
2019-06-20T19:46:01.031Z,97722.47
2019-06-20T19:48:32.584Z,97725.09
2019-06-20T19:51:04.542Z,97729.11
2019-06-20T19:53:36.769Z,97726.83
2019-06-20T19:56:08.907Z,97727.64
2019-06-20T19:58:40.535Z,97727.55
2019-06-20T20:01:12.527Z,97730.41
2019-06-20T20:03:45.592Z,97735.44
2019-06-20T20:06:17.277Z,97731.94
2019-06-20T20:08:48.866Z,97733.05
2019-06-20T20:11:22.244Z,97730.06
2019-06-20T20:13:54.483Z,97732.30
2019-06-20T20:16:26.464Z,97740.52
2019-06-20T20:18:57.994Z,97732.51
2019-06-20T20:21:29.780Z,97732.89
2019-06-20T20:24:01.326Z,97744.97
2019-06-20T20:26:33.317Z,97780.04
2019-06-20T20:29:05.011Z,97795.91
2019-06-20T20:31:38.120Z,97797.95
2019-06-20T20:34:11.835Z,97793.95
2019-06-20T20:36:43.467Z,97786.12
2019-06-20T20:39:16.950Z,97783.30
2019-06-20T20:41:48.515Z,97778.97
2019-06-20T20:44:19.698Z,97772.97
2019-06-20T20:46:50.709Z,97776.45
2019-06-20T20:49:21.819Z,97773.59
2019-06-20T20:51:52.979Z,97780.77
2019-06-20T20:54:24.231Z,97775.04
2019-06-20T20:56:55.930Z,97778.11
2019-06-20T20:59:27.140Z,97780.77
2019-06-20T21:01:58.751Z,97775.44
2019-06-20T21:04:29.907Z,97786.98
2019-06-20T21:07:01.096Z,97796.62
2019-06-20T21:09:32.252Z,97799.59
2019-06-20T21:12:03.447Z,97793.22
2019-06-20T21:14:34.450Z,97794.91
2019-06-20T21:17:05.796Z,97798.09
2019-06-20T21:19:36.754Z,97799.63
2019-06-20T21:22:07.959Z,97801.66
2019-06-20T21:24:39.016Z,97803.53
2019-06-20T21:27:09.886Z,97813.61
2019-06-20T21:29:40.984Z,97807.28
2019-06-20T21:32:12.061Z,97817.81
2019-06-20T21:34:43.094Z,97815.83
2019-06-20T21:37:14.648Z,97819.51
2019-06-20T21:39:45.758Z,97821.47
2019-06-20T21:42:17.154Z,97820.34
2019-06-20T21:44:48.145Z,97828.72
2019-06-20T21:47:19.387Z,97829.93
2019-06-20T21:49:50.268Z,97835.25
2019-06-20T21:52:21.559Z,97837.01
2019-06-20T21:54:52.410Z,97836.42
2019-06-20T21:57:23.543Z,97842.83
2019-06-20T21:59:54.752Z,97841.69
2019-06-20T22:02:25.812Z,97836.59
2019-06-20T22:04:57.097Z,97831.84
2019-06-20T22:07:28.126Z,97828.81
2019-06-20T22:09:59.094Z,97823.17
2019-06-20T22:12:30.204Z,97822.36
2019-06-20T22:15:01.197Z,97811.52
2019-06-20T22:17:32.774Z,97826.66
2019-06-20T22:20:05.110Z,97822.55
2019-06-20T22:22:36.440Z,97820.94
2019-06-20T22:25:08.947Z,97825.24
2019-06-20T22:27:40.060Z,97817.64
2019-06-20T22:30:14.662Z,97809.22
2019-06-20T22:32:45.782Z,97815.45
2019-06-20T22:35:17.043Z,97814.98
2019-06-20T22:37:47.987Z,97807.20
2019-06-20T22:40:19.153Z,97807.20
2019-06-20T22:42:50.176Z,97806.18
2019-06-20T22:45:21.425Z,97805.33
2019-06-20T22:47:52.893Z,97803.36
2019-06-20T22:50:24.146Z,97803.02
2019-06-20T22:52:55.213Z,97798.17
2019-06-20T22:55:26.273Z,97793.05
2019-06-20T22:57:57.487Z,97792.85
2019-06-20T23:00:28.666Z,97800.04
2019-06-20T23:02:59.761Z,97797.54
2019-06-20T23:05:30.864Z,97791.91
2019-06-20T23:08:02.089Z,97789.56
2019-06-20T23:10:33.136Z,97787.91
2019-06-20T23:13:04.822Z,97787.53
2019-06-20T23:15:35.880Z,97788.90
2019-06-20T23:18:07.054Z,97799.91
2019-06-20T23:20:38.043Z,97803.64
2019-06-20T23:23:11.048Z,97805.42
2019-06-20T23:25:43.790Z,97809.97
2019-06-20T23:28:14.891Z,97812.09
2019-06-20T23:30:45.982Z,97814.51
2019-06-20T23:33:16.953Z,97809.89
2019-06-20T23:35:48.042Z,97817.17
2019-06-20T23:38:19.032Z,97819.53
2019-06-20T23:40:50.015Z,97828.23
2019-06-20T23:43:21.216Z,97819.42
2019-06-20T23:45:52.582Z,97806.66
2019-06-20T23:48:23.636Z,97809.23
2019-06-20T23:50:54.649Z,97802.50
2019-06-20T23:53:27.607Z,97806.84
2019-06-20T23:55:58.555Z,97802.00
2019-06-20T23:58:29.526Z,97804.02
